Time;durP1;ratioP1;P1;durP2;ratioP2;P2;SDS_P1;SDS_P2;PMS_P1;PMS_P2;Temp;Humidity;BMP_temperature;BMP_pressure;BME280_temperature;BME280_humidity;BME280_pressure;Samples;Min_cycle;Max_cycle;Signal;HPM_P1;HPM_P2
2021/01/29 00:00:38;;;;;;;1.07;0.40;;;10.30;99.90;;;;;;5036604;28;20423;-81
2021/01/29 00:03:08;;;;;;;0.70;0.57;;;10.30;99.90;;;;;;5033056;28;20191;-82
2021/01/29 00:05:39;;;;;;;1.57;0.50;;;10.30;99.90;;;;;;5028124;28;20421;-81
2021/01/29 00:08:04;;;;;;;1.13;0.40;;;10.20;99.90;;;;;;5036625;28;20458;-80
2021/01/29 00:10:30;;;;;;;0.97;0.50;;;10.20;99.90;;;;;;5034483;28;20519;-81
2021/01/29 00:12:57;;;;;;;1.27;0.50;;;10.20;99.90;;;;;;5037115;28;20181;-81
2021/01/29 00:15:22;;;;;;;0.60;0.60;;;10.10;99.90;;;;;;5036269;28;20314;-81
2021/01/29 00:17:48;;;;;;;0.50;0.50;;;10.10;99.90;;;;;;5036889;28;20457;-81
2021/01/29 00:20:17;;;;;;;2.00;0.50;;;10.00;99.90;;;;;;5036966;28;20243;-81
2021/01/29 00:22:42;;;;;;;0.60;0.60;;;9.90;99.90;;;;;;5036693;28;20426;-81
2021/01/29 00:25:09;;;;;;;1.83;0.60;;;9.90;99.90;;;;;;5036836;28;20434;-81
2021/01/29 00:27:37;;;;;;;1.23;0.60;;;9.90;99.90;;;;;;5032478;28;20204;-80
2021/01/29 00:30:05;;;;;;;2.10;0.60;;;9.80;99.90;;;;;;5036564;28;20933;-81
2021/01/29 00:32:30;;;;;;;0.40;0.40;;;9.70;99.90;;;;;;5036649;28;20414;-81
2021/01/29 00:34:56;;;;;;;0.60;0.60;;;9.60;99.90;;;;;;5037102;28;20428;-80
2021/01/29 00:37:21;;;;;;;3.47;0.50;;;9.60;99.90;;;;;;5033505;28;20586;-81
2021/01/29 00:39:47;;;;;;;1.27;1.17;;;9.50;99.90;;;;;;5034792;28;20257;-80
2021/01/29 00:42:12;;;;;;;2.10;0.47;;;9.50;99.90;;;;;;5034408;28;20187;-81
2021/01/29 00:44:38;;;;;;;1.90;0.50;;;9.50;99.90;;;;;;5034768;28;20199;-81
2021/01/29 00:47:03;;;;;;;0.60;0.60;;;9.40;99.90;;;;;;5030594;28;20690;-80
2021/01/29 00:49:29;;;;;;;1.87;0.60;;;9.30;99.90;;;;;;5038065;28;20202;-81
2021/01/29 00:51:54;;;;;;;0.60;0.50;;;9.30;99.90;;;;;;5037753;28;20187;-81
2021/01/29 00:54:20;;;;;;;1.47;0.60;;;9.30;99.90;;;;;;5036426;28;20188;-81
2021/01/29 00:56:45;;;;;;;1.13;0.60;;;9.30;99.90;;;;;;5037363;28;20201;-82
2021/01/29 00:59:11;;;;;;;0.80;0.57;;;9.30;99.90;;;;;;5036371;28;20683;-81
2021/01/29 01:01:36;;;;;;;1.03;0.50;;;9.30;99.90;;;;;;5035459;28;20196;-81
2021/01/29 01:04:02;;;;;;;1.10;0.47;;;9.30;99.90;;;;;;5035083;28;20186;-81
2021/01/29 01:06:27;;;;;;;0.80;0.50;;;9.30;99.90;;;;;;5035029;28;20723;-81
2021/01/29 01:08:53;;;;;;;2.77;0.50;;;9.40;99.90;;;;;;5036550;28;20710;-80
2021/01/29 01:11:18;;;;;;;0.90;0.50;;;9.40;99.90;;;;;;5036554;28;20184;-81
2021/01/29 01:13:44;;;;;;;1.60;0.50;;;9.50;99.90;;;;;;5035418;28;20249;-81
2021/01/29 01:16:10;;;;;;;5.30;0.50;;;9.50;99.90;;;;;;5036448;28;20796;-80
2021/01/29 01:18:36;;;;;;;0.40;0.40;;;9.60;99.90;;;;;;5041358;28;20431;-81
2021/01/29 01:21:01;;;;;;;0.57;0.40;;;9.60;99.90;;;;;;5039527;28;20276;-81
2021/01/29 01:23:27;;;;;;;0.60;0.50;;;9.60;99.90;;;;;;5040992;28;20427;-80
2021/01/29 01:25:53;;;;;;;1.37;0.50;;;9.60;99.90;;;;;;5039684;28;20209;-80
2021/01/29 01:28:19;;;;;;;1.57;0.70;;;9.60;99.90;;;;;;5039805;28;20202;-80
2021/01/29 01:30:44;;;;;;;1.50;0.50;;;9.60;99.90;;;;;;5040347;28;20497;-81
2021/01/29 01:33:10;;;;;;;0.80;0.50;;;9.70;99.90;;;;;;5039869;28;20183;-80
2021/01/29 01:35:36;;;;;;;0.60;0.50;;;9.60;99.90;;;;;;5040075;28;20176;-81
2021/01/29 01:38:03;;;;;;;0.80;0.60;;;9.60;99.90;;;;;;5041187;28;20224;-80
2021/01/29 01:40:33;;;;;;;0.60;0.50;;;9.60;99.90;;;;;;5039443;28;20184;-81
2021/01/29 01:42:58;;;;;;;0.60;0.50;;;9.60;99.90;;;;;;5039458;28;20444;-80
2021/01/29 01:45:27;;;;;;;0.97;0.50;;;9.50;99.90;;;;;;5038669;28;20420;-80
2021/01/29 01:48:10;;;;;;;0.70;0.60;;;9.50;99.90;;;;;;5039380;28;20209;-80
2021/01/29 01:50:45;;;;;;;5.13;1.03;;;9.50;99.90;;;;;;5033230;28;20890;-80
2021/01/29 01:53:23;;;;;;;1.80;0.77;;;9.50;99.90;;;;;;5035812;28;20440;-80
2021/01/29 01:55:55;;;;;;;0.60;0.60;;;9.40;99.90;;;;;;5037671;28;20513;-81
2021/01/29 01:58:20;;;;;;;1.00;0.80;;;9.40;99.90;;;;;;5037214;28;20431;-81
2021/01/29 02:00:46;;;;;;;1.00;0.63;;;9.40;99.90;;;;;;5039727;28;20904;-80
2021/01/29 02:03:21;;;;;;;1.97;0.60;;;9.40;99.90;;;;;;5038440;28;20710;-82
2021/01/29 02:05:46;;;;;;;0.50;0.50;;;9.40;99.90;;;;;;5047208;28;20233;-80
2021/01/29 02:08:15;;;;;;;0.60;0.50;;;9.40;99.90;;;;;;5050296;28;20463;-80
2021/01/29 02:10:41;;;;;;;0.80;0.53;;;9.30;99.90;;;;;;5049157;28;20259;-80
2021/01/29 02:13:07;;;;;;;0.50;0.50;;;9.30;99.90;;;;;;5049117;28;20417;-80
2021/01/29 02:15:38;;;;;;;0.90;0.73;;;9.30;99.90;;;;;;5049143;28;20213;-80
2021/01/29 02:18:30;;;;;;;0.70;0.50;;;9.30;99.90;;;;;;5041481;28;20483;-80
2021/01/29 02:21:37;;;;;;;0.93;0.60;;;9.20;99.90;;;;;;5042564;28;20435;-81
2021/01/29 02:24:36;;;;;;;1.33;0.60;;;9.20;99.90;;;;;;5044311;28;20419;-80
2021/01/29 02:27:24;;;;;;;2.73;0.60;;;9.20;99.90;;;;;;5040257;28;20496;-81
2021/01/29 02:30:01;;;;;;;1.40;0.50;;;9.20;99.90;;;;;;5039036;28;20457;-81
2021/01/29 02:32:55;;;;;;;0.63;0.50;;;9.30;99.90;;;;;;5040457;28;20379;-80
2021/01/29 02:35:39;;;;;;;0.50;0.50;;;9.30;99.90;;;;;;5039644;28;20497;-80
2021/01/29 02:38:30;;;;;;;0.50;0.50;;;9.30;99.90;;;;;;5037262;28;20422;-80
2021/01/29 02:41:28;;;;;;;2.63;0.77;;;9.20;99.90;;;;;;5036686;28;20426;-80
2021/01/29 02:44:14;;;;;;;0.60;0.60;;;9.30;99.90;;;;;;5004931;28;20454;-80
2021/01/29 02:47:05;;;;;;;0.67;0.50;;;9.30;99.90;;;;;;5034612;28;20819;-79
2021/01/29 02:49:59;;;;;;;1.00;0.50;;;9.30;99.90;;;;;;5041246;28;20994;-82
2021/01/29 02:52:35;;;;;;;0.40;0.40;;;9.40;99.90;;;;;;5043168;28;20424;-81
2021/01/29 02:55:24;;;;;;;0.70;0.50;;;9.40;99.90;;;;;;5038531;28;20501;-81
2021/01/29 02:58:16;;;;;;;0.70;0.57;;;9.40;99.90;;;;;;5036644;28;20447;-81
2021/01/29 03:01:17;;;;;;;0.40;0.40;;;9.40;99.90;;;;;;5059733;28;20449;-80
2021/01/29 03:04:02;;;;;;;0.40;0.40;;;9.40;99.90;;;;;;5022827;28;20433;-81
2021/01/29 03:06:57;;;;;;;0.40;0.40;;;9.30;99.90;;;;;;5040101;28;20426;-82
2021/01/29 03:09:38;;;;;;;0.87;0.50;;;9.40;99.90;;;;;;5024358;28;20639;-81
2021/01/29 03:12:19;;;;;;;0.40;0.40;;;9.30;99.90;;;;;;5037271;28;20521;-80
2021/01/29 03:15:06;;;;;;;0.80;0.50;;;9.30;99.90;;;;;;5064227;28;20486;-78
2021/01/29 03:17:40;;;;;;;0.50;0.50;;;9.30;99.90;;;;;;5035301;28;20528;-81
2021/01/29 03:20:11;;;;;;;0.40;0.40;;;9.30;99.90;;;;;;5037094;28;20555;-80
2021/01/29 03:22:50;;;;;;;0.50;0.50;;;9.40;99.90;;;;;;5030979;28;20960;-80
2021/01/29 03:25:22;;;;;;;0.80;0.50;;;9.40;99.90;;;;;;5031310;28;20502;-80
2021/01/29 03:27:52;;;;;;;0.70;0.50;;;9.40;99.90;;;;;;5036538;28;20453;-80
2021/01/29 03:30:29;;;;;;;0.50;0.40;;;9.40;99.90;;;;;;5034406;28;20426;-80
2021/01/29 03:32:58;;;;;;;0.50;0.50;;;9.40;99.90;;;;;;5033818;28;20442;-81
2021/01/29 03:35:31;;;;;;;0.40;0.40;;;9.40;99.90;;;;;;5035422;28;20420;-81
2021/01/29 03:38:22;;;;;;;1.70;0.50;;;9.40;99.90;;;;;;5036575;28;20430;-80
2021/01/29 03:40:55;;;;;;;3.27;0.47;;;9.40;99.90;;;;;;5018002;28;20429;-80
2021/01/29 03:43:37;;;;;;;2.13;0.40;;;9.40;99.90;;;;;;5034192;28;20450;-81
2021/01/29 03:46:18;;;;;;;0.40;0.40;;;9.40;99.90;;;;;;5033874;28;20500;-80
2021/01/29 03:49:02;;;;;;;1.40;0.50;;;9.40;99.90;;;;;;5037080;28;20463;-80
2021/01/29 03:51:55;;;;;;;2.43;0.60;;;9.40;99.90;;;;;;5036263;28;20530;-80
2021/01/29 03:54:24;;;;;;;0.47;0.43;;;9.40;99.90;;;;;;5034201;28;20426;-81
2021/01/29 03:57:14;;;;;;;0.50;0.50;;;9.40;99.90;;;;;;5033432;28;20833;-80
2021/01/29 03:59:40;;;;;;;0.70;0.47;;;9.40;99.90;;;;;;5032879;28;20416;-80
2021/01/29 04:02:06;;;;;;;0.50;0.50;;;9.40;99.90;;;;;;5033006;28;20450;-81
2021/01/29 04:04:46;;;;;;;1.10;0.40;;;9.40;99.90;;;;;;5036090;28;20186;-80
2021/01/29 04:07:24;;;;;;;0.50;0.40;;;9.40;99.90;;;;;;5030121;28;20521;-81
2021/01/29 04:10:04;;;;;;;0.50;0.50;;;9.30;99.90;;;;;;5034558;28;20889;-80
2021/01/29 04:12:36;;;;;;;0.80;0.40;;;9.30;99.90;;;;;;5034243;28;20546;-80
2021/01/29 04:15:20;;;;;;;0.50;0.50;;;9.30;99.90;;;;;;5034355;28;20493;-80
2021/01/29 04:18:00;;;;;;;1.43;0.50;;;9.30;99.90;;;;;;5029448;28;20463;-81
2021/01/29 04:20:37;;;;;;;0.40;0.40;;;9.30;99.90;;;;;;5033375;28;20796;-81
2021/01/29 04:23:11;;;;;;;0.33;0.30;;;9.20;99.90;;;;;;5032275;28;20446;-81
2021/01/29 04:25:41;;;;;;;0.47;0.40;;;9.30;99.90;;;;;;5031273;28;20439;-80
2021/01/29 04:28:14;;;;;;;0.40;0.40;;;9.20;99.90;;;;;;5027729;28;20463;-80
2021/01/29 04:30:44;;;;;;;0.70;0.40;;;9.30;99.90;;;;;;5029985;28;20431;-80
2021/01/29 04:33:18;;;;;;;0.50;0.50;;;9.20;99.90;;;;;;5033042;28;21001;-81
2021/01/29 04:35:45;;;;;;;0.50;0.43;;;9.20;99.90;;;;;;5030612;28;20554;-81
2021/01/29 04:38:25;;;;;;;0.40;0.30;;;9.20;99.90;;;;;;5031936;28;20435;-80
2021/01/29 04:41:14;;;;;;;0.40;0.40;;;9.30;99.90;;;;;;5031033;28;20898;-81
2021/01/29 04:44:00;;;;;;;0.40;0.40;;;9.30;99.90;;;;;;5029670;28;20967;-80
2021/01/29 04:46:31;;;;;;;0.83;0.40;;;9.30;99.90;;;;;;5033860;28;20467;-80
2021/01/29 04:49:05;;;;;;;0.63;0.40;;;9.30;99.90;;;;;;5032802;28;20860;-81
2021/01/29 04:52:00;;;;;;;0.30;0.30;;;9.30;99.90;;;;;;5031893;28;20469;-81
2021/01/29 04:54:58;;;;;;;0.40;0.40;;;9.30;99.90;;;;;;5034444;28;20440;-80
2021/01/29 04:57:56;;;;;;;0.50;0.40;;;9.30;99.90;;;;;;5036581;28;20455;-80
2021/01/29 05:00:52;;;;;;;0.40;0.37;;;9.30;99.90;;;;;;5036847;28;20453;-80
2021/01/29 05:03:28;;;;;;;0.40;0.40;;;9.20;99.90;;;;;;5034599;28;20444;-80
2021/01/29 05:05:57;;;;;;;0.80;0.50;;;9.20;99.90;;;;;;5036001;28;20959;-80
2021/01/29 05:08:55;;;;;;;0.57;0.40;;;9.20;99.90;;;;;;5038167;28;20550;-81
2021/01/29 05:12:17;;;;;;;0.40;0.40;;;9.20;99.90;;;;;;5034937;28;20886;-80
2021/01/29 05:15:00;;;;;;;1.50;0.40;;;9.20;99.90;;;;;;4949096;29;20828;-80
2021/01/29 05:18:02;;;;;;;2.10;0.33;;;9.10;99.90;;;;;;5027587;28;20540;-80
2021/01/29 05:20:45;;;;;;;3.63;0.50;;;9.10;99.90;;;;;;5012574;28;20526;-80
2021/01/29 05:23:32;;;;;;;0.60;0.40;;;9.10;99.90;;;;;;5035239;28;20414;-80
2021/01/29 05:26:29;;;;;;;0.70;0.50;;;9.10;99.90;;;;;;5039132;28;20471;-81
2021/01/29 05:29:09;;;;;;;0.70;0.50;;;9.10;99.90;;;;;;5069023;28;20499;-81
2021/01/29 05:32:03;;;;;;;0.53;0.40;;;9.10;99.90;;;;;;5065747;28;20440;-81
2021/01/29 05:34:36;;;;;;;0.40;0.40;;;9.00;99.90;;;;;;5035653;28;20791;-81
2021/01/29 05:37:33;;;;;;;0.40;0.30;;;9.10;99.90;;;;;;5041845;28;20520;-81
2021/01/29 05:40:10;;;;;;;0.40;0.40;;;9.00;99.90;;;;;;5037858;28;20538;-80
2021/01/29 05:42:44;;;;;;;3.17;0.40;;;9.00;99.90;;;;;;5032813;28;20549;-81
2021/01/29 05:45:50;;;;;;;2.83;0.50;;;9.00;99.90;;;;;;5034950;28;20418;-81
2021/01/29 05:48:41;;;;;;;0.57;0.40;;;8.90;99.90;;;;;;5033831;28;20477;-81
2021/01/29 05:51:22;;;;;;;1.77;0.40;;;8.90;99.90;;;;;;5035906;28;20431;-80
2021/01/29 05:54:00;;;;;;;0.40;0.40;;;8.90;99.90;;;;;;5038315;28;20434;-81
2021/01/29 05:56:45;;;;;;;0.50;0.40;;;8.90;99.90;;;;;;5037425;28;20430;-81
2021/01/29 05:59:40;;;;;;;0.70;0.40;;;8.80;99.90;;;;;;5032393;28;20472;-81
2021/01/29 06:02:35;;;;;;;0.40;0.40;;;8.80;99.90;;;;;;5030319;28;20785;-82
2021/01/29 06:05:18;;;;;;;0.70;0.40;;;8.70;99.90;;;;;;5037124;28;21001;-81
2021/01/29 06:08:06;;;;;;;1.70;0.40;;;8.60;99.90;;;;;;5031986;28;20545;-81
2021/01/29 06:11:09;;;;;;;0.40;0.40;;;8.60;99.90;;;;;;5033750;28;20437;-81
2021/01/29 06:14:02;;;;;;;0.40;0.40;;;8.60;99.90;;;;;;5030880;28;20521;-81
2021/01/29 06:17:01;;;;;;;2.00;0.40;;;8.70;99.90;;;;;;5035597;28;20407;-81
2021/01/29 06:19:47;;;;;;;0.70;0.40;;;8.70;99.90;;;;;;5033118;28;20516;-81
2021/01/29 06:22:30;;;;;;;0.50;0.40;;;8.70;99.90;;;;;;5033371;28;20446;-80
2021/01/29 06:25:17;;;;;;;5.73;0.77;;;8.70;99.90;;;;;;5035301;28;20442;-80
2021/01/29 06:27:55;;;;;;;0.80;0.40;;;8.70;99.90;;;;;;5023235;28;20457;-81
2021/01/29 06:30:34;;;;;;;0.50;0.40;;;8.80;99.90;;;;;;5035448;28;20423;-80
2021/01/29 06:33:18;;;;;;;0.40;0.40;;;8.90;99.90;;;;;;5033075;28;20491;-80
2021/01/29 06:36:10;;;;;;;0.50;0.40;;;8.90;99.90;;;;;;5031993;28;20540;-81
2021/01/29 06:39:07;;;;;;;0.50;0.40;;;9.00;99.90;;;;;;5030322;28;20419;-80
2021/01/29 06:41:51;;;;;;;0.40;0.30;;;8.90;99.90;;;;;;5019812;28;20472;-80
2021/01/29 06:44:35;;;;;;;0.43;0.40;;;8.90;99.90;;;;;;5036112;28;20491;-80
2021/01/29 06:47:25;;;;;;;1.27;0.40;;;8.90;99.90;;;;;;5036739;28;21012;-80
2021/01/29 06:49:56;;;;;;;0.30;0.30;;;8.90;99.90;;;;;;5028479;28;20834;-80
2021/01/29 06:52:42;;;;;;;0.60;0.40;;;9.00;99.90;;;;;;5030260;28;20465;-76
2021/01/29 06:55:16;;;;;;;0.43;0.37;;;9.00;99.90;;;;;;5029401;28;20946;-72
2021/01/29 06:58:05;;;;;;;0.40;0.37;;;9.10;99.90;;;;;;5029261;28;20449;-74
2021/01/29 07:01:02;;;;;;;0.83;0.40;;;9.10;99.90;;;;;;5031571;28;20437;-75
2021/01/29 07:03:45;;;;;;;0.40;0.30;;;9.10;99.90;;;;;;5029997;28;20953;-75
2021/01/29 07:06:19;;;;;;;0.30;0.30;;;9.10;99.90;;;;;;5058313;28;20531;-75
2021/01/29 07:09:03;;;;;;;0.80;0.40;;;9.10;99.90;;;;;;5033182;28;20456;-75
2021/01/29 07:11:54;;;;;;;0.40;0.37;;;9.10;99.90;;;;;;5033391;28;20460;-75
2021/01/29 07:14:41;;;;;;;0.40;0.30;;;9.10;99.90;;;;;;5000689;28;20434;-76
2021/01/29 07:17:27;;;;;;;0.40;0.40;;;9.10;99.90;;;;;;5027986;28;21026;-75
2021/01/29 07:20:24;;;;;;;0.40;0.40;;;9.10;99.90;;;;;;5027985;28;20447;-75
2021/01/29 07:23:01;;;;;;;0.70;0.50;;;9.10;99.90;;;;;;5026593;28;21131;-75
2021/01/29 07:25:51;;;;;;;0.50;0.40;;;9.20;99.90;;;;;;5030829;28;20414;-74
2021/01/29 07:28:43;;;;;;;3.40;0.40;;;9.20;99.90;;;;;;5026208;28;20470;-75
2021/01/29 07:31:37;;;;;;;0.40;0.40;;;9.20;99.90;;;;;;5028344;28;20481;-74
2021/01/29 07:34:16;;;;;;;0.83;0.30;;;9.30;99.90;;;;;;5027195;28;20434;-75
2021/01/29 07:37:08;;;;;;;1.90;0.40;;;9.20;99.90;;;;;;5028203;28;20460;-76
2021/01/29 07:39:55;;;;;;;0.93;0.70;;;9.20;99.90;;;;;;5029607;28;20438;-75
2021/01/29 07:42:36;;;;;;;2.30;0.40;;;9.20;99.90;;;;;;5029809;28;20442;-75
2021/01/29 07:45:25;;;;;;;0.83;0.60;;;9.20;99.90;;;;;;5031381;28;20441;-73
2021/01/29 07:48:22;;;;;;;0.40;0.30;;;9.30;99.90;;;;;;5029625;28;20478;-76
2021/01/29 07:51:25;;;;;;;0.50;0.40;;;9.30;99.90;;;;;;5029718;28;20434;-74
2021/01/29 07:54:12;;;;;;;0.40;0.30;;;9.30;99.90;;;;;;5063280;28;20827;-75
2021/01/29 07:57:02;;;;;;;2.80;0.40;;;9.30;99.90;;;;;;5027713;28;20488;-74
2021/01/29 07:59:40;;;;;;;0.40;0.40;;;9.40;99.90;;;;;;5027469;28;20422;-74
2021/01/29 08:02:30;;;;;;;0.40;0.30;;;9.50;99.90;;;;;;5033440;28;20430;-75
2021/01/29 08:05:21;;;;;;;0.50;0.40;;;9.50;99.90;;;;;;5028206;28;20474;-74
2021/01/29 08:07:53;;;;;;;1.30;0.47;;;9.60;99.90;;;;;;5027435;28;20456;-75
2021/01/29 08:10:41;;;;;;;0.70;0.40;;;9.60;99.90;;;;;;5029472;28;20427;-74
2021/01/29 08:13:31;;;;;;;0.87;0.40;;;9.70;99.90;;;;;;5025975;28;20425;-74
2021/01/29 08:16:02;;;;;;;0.73;0.40;;;9.70;99.90;;;;;;5027615;28;20985;-74
2021/01/29 08:19:15;;;;;;;1.33;0.40;;;9.80;99.90;;;;;;5028232;28;20450;-75
2021/01/29 08:21:59;;;;;;;2.00;0.50;;;9.80;99.90;;;;;;4965001;28;20442;-75
2021/01/29 08:24:43;;;;;;;0.40;0.40;;;9.90;99.90;;;;;;5020581;28;20430;-75
2021/01/29 08:27:54;;;;;;;0.40;0.40;;;9.90;99.90;;;;;;5026636;28;21020;-75
2021/01/29 08:30:25;;;;;;;2.40;0.47;;;9.90;99.90;;;;;;5028789;28;20423;-75
2021/01/29 08:33:37;;;;;;;0.40;0.40;;;9.90;99.90;;;;;;5033376;28;20443;-74
2021/01/29 08:36:30;;;;;;;0.53;0.37;;;9.90;99.90;;;;;;4993576;28;20471;-74
2021/01/29 08:39:19;;;;;;;0.50;0.40;;;9.90;99.90;;;;;;5026324;28;20504;-75
2021/01/29 08:42:24;;;;;;;0.80;0.70;;;10.00;99.90;;;;;;5028181;28;20458;-74
2021/01/29 08:45:05;;;;;;;0.60;0.60;;;10.10;99.90;;;;;;5030765;28;20446;-74
2021/01/29 08:47:44;;;;;;;0.70;0.70;;;10.10;99.90;;;;;;5030470;28;20458;-74
2021/01/29 08:50:46;;;;;;;1.03;0.73;;;10.00;99.90;;;;;;5030411;28;20474;-74
2021/01/29 08:53:46;;;;;;;0.60;0.50;;;10.00;99.90;;;;;;5029448;28;20498;-74
2021/01/29 08:56:15;;;;;;;0.60;0.50;;;10.20;99.90;;;;;;5027106;28;20549;-72
2021/01/29 08:59:02;;;;;;;1.43;0.70;;;10.30;99.90;;;;;;5030260;28;20915;-74
2021/01/29 09:01:46;;;;;;;1.00;0.50;;;10.40;99.90;;;;;;5029421;28;21071;-74
2021/01/29 09:04:37;;;;;;;1.10;0.73;;;10.50;99.90;;;;;;5027132;28;20440;-75
2021/01/29 09:07:08;;;;;;;2.30;0.80;;;10.70;99.90;;;;;;5029951;28;20517;-75
2021/01/29 09:09:37;;;;;;;0.73;0.73;;;10.80;99.90;;;;;;5028999;28;20489;-75
2021/01/29 09:12:12;;;;;;;0.70;0.70;;;10.80;99.90;;;;;;5030001;28;20600;-74
2021/01/29 09:14:56;;;;;;;0.50;0.50;;;10.70;99.90;;;;;;5025817;28;21002;-73
2021/01/29 09:17:25;;;;;;;2.30;0.70;;;10.80;99.90;;;;;;5029761;28;20460;-75
2021/01/29 09:19:59;;;;;;;1.83;0.83;;;11.00;99.90;;;;;;5035817;28;20786;-75
2021/01/29 09:22:35;;;;;;;1.57;0.50;;;11.30;99.90;;;;;;5028568;28;20545;-75
2021/01/29 09:25:19;;;;;;;1.30;0.60;;;11.70;99.90;;;;;;5030729;28;20447;-76
2021/01/29 09:28:03;;;;;;;1.60;0.50;;;12.00;99.90;;;;;;5026525;28;20579;-75
2021/01/29 09:30:36;;;;;;;2.20;0.90;;;12.20;99.90;;;;;;5030340;28;20562;-75
2021/01/29 09:33:25;;;;;;;1.10;0.80;;;12.40;99.90;;;;;;5026461;28;20793;-75
2021/01/29 09:35:58;;;;;;;3.50;1.00;;;12.70;99.90;;;;;;5030298;28;20858;-75
2021/01/29 09:38:36;;;;;;;2.37;0.60;;;12.50;99.90;;;;;;5029993;28;20960;-75
2021/01/29 09:41:31;;;;;;;1.03;0.70;;;12.40;99.90;;;;;;5032761;28;20429;-75
2021/01/29 09:44:26;;;;;;;2.70;0.53;;;12.70;99.90;;;;;;5032182;28;20450;-75
2021/01/29 09:46:58;;;;;;;7.33;1.60;;;13.10;99.90;;;;;;5030390;28;20830;-76
2021/01/29 09:49:30;;;;;;;1.37;0.70;;;12.90;99.90;;;;;;5032005;28;20818;-76
2021/01/29 09:51:59;;;;;;;3.27;0.70;;;12.40;99.90;;;;;;5035718;28;20445;-77
2021/01/29 09:54:42;;;;;;;1.60;0.70;;;12.00;99.90;;;;;;5033647;28;20920;-75
2021/01/29 09:57:23;;;;;;;2.60;0.50;;;11.80;99.90;;;;;;5029723;28;20432;-75
2021/01/29 09:59:56;;;;;;;1.67;0.80;;;11.70;99.90;;;;;;5036391;28;20557;-75
2021/01/29 10:02:56;;;;;;;5.07;1.00;;;11.80;99.90;;;;;;5033784;28;20481;-75
2021/01/29 10:05:27;;;;;;;2.97;0.70;;;12.20;99.90;;;;;;5000959;28;20883;-75
2021/01/29 10:08:15;;;;;;;2.13;0.83;;;12.70;99.90;;;;;;5033744;28;20511;-75
2021/01/29 10:10:59;;;;;;;4.63;1.20;;;13.00;99.90;;;;;;5028494;28;20432;-75
2021/01/29 10:13:43;;;;;;;5.77;1.00;;;12.70;99.90;;;;;;5032666;28;20424;-75
2021/01/29 10:16:19;;;;;;;1.53;0.80;;;12.80;99.90;;;;;;5029212;28;20483;-75
2021/01/29 10:18:59;;;;;;;2.47;0.80;;;13.00;99.90;;;;;;5026497;28;20969;-75
2021/01/29 10:21:56;;;;;;;3.43;0.80;;;12.80;99.90;;;;;;5039538;28;20810;-75
2021/01/29 10:24:46;;;;;;;2.20;1.00;;;12.90;99.90;;;;;;5059546;28;20433;-75
2021/01/29 10:27:23;;;;;;;5.70;0.60;;;13.10;99.90;;;;;;5021616;28;20471;-75
2021/01/29 10:30:10;;;;;;;5.23;1.07;;;13.20;99.90;;;;;;5033400;28;21064;-75
2021/01/29 10:32:36;;;;;;;4.20;0.93;;;13.40;99.90;;;;;;5030346;28;20544;-75
2021/01/29 10:35:11;;;;;;;3.47;0.90;;;13.40;99.90;;;;;;5032674;28;20527;-75
2021/01/29 10:37:40;;;;;;;3.20;0.90;;;13.00;99.90;;;;;;5027088;28;20213;-75
2021/01/29 10:40:33;;;;;;;4.00;0.73;;;13.20;99.90;;;;;;5029151;28;20471;-75
2021/01/29 10:43:17;;;;;;;2.53;0.90;;;13.40;99.90;;;;;;5034661;28;20446;-75
2021/01/29 10:45:55;;;;;;;5.53;0.80;;;13.50;99.90;;;;;;5029867;28;20783;-75
2021/01/29 10:48:46;;;;;;;5.60;1.00;;;13.50;99.90;;;;;;5032867;28;20467;-75
2021/01/29 10:51:29;;;;;;;3.93;1.30;;;13.40;99.90;;;;;;5027199;28;20799;-76
2021/01/29 10:54:00;;;;;;;6.07;0.70;;;13.60;99.90;;;;;;5030741;28;20440;-75
2021/01/29 10:56:43;;;;;;;4.70;1.30;;;13.30;99.90;;;;;;5032255;28;20775;-77
2021/01/29 10:59:16;;;;;;;4.03;0.80;;;13.20;99.90;;;;;;5025896;28;20520;-77
2021/01/29 11:01:47;;;;;;;2.70;0.80;;;12.80;99.90;;;;;;5032561;28;20424;-75
2021/01/29 11:04:24;;;;;;;3.53;1.00;;;12.90;99.90;;;;;;5031693;28;20433;-75
2021/01/29 11:06:59;;;;;;;1.53;0.90;;;13.00;99.90;;;;;;5032308;28;20432;-76
2021/01/29 11:09:35;;;;;;;4.83;1.43;;;13.10;99.90;;;;;;5031403;28;20468;-76
2021/01/29 11:12:22;;;;;;;6.40;1.20;;;13.10;99.90;;;;;;5063797;28;20482;-75
2021/01/29 11:14:52;;;;;;;4.73;1.43;;;12.70;99.90;;;;;;5026043;28;20435;-77
2021/01/29 11:17:31;;;;;;;4.23;0.90;;;12.90;99.90;;;;;;5032139;28;20831;-75
2021/01/29 11:19:59;;;;;;;7.47;0.93;;;13.00;99.90;;;;;;5029257;28;20446;-73
2021/01/29 11:22:38;;;;;;;5.03;0.97;;;12.90;99.90;;;;;;5032320;28;20443;-74
2021/01/29 11:25:19;;;;;;;1.97;1.03;;;12.80;99.90;;;;;;5030449;28;20476;-75
2021/01/29 11:27:59;;;;;;;3.90;0.97;;;12.50;99.90;;;;;;5029238;28;20486;-75
2021/01/29 11:30:31;;;;;;;6.17;1.40;;;12.30;99.90;;;;;;5031037;28;20441;-75
2021/01/29 11:33:03;;;;;;;4.20;1.13;;;12.00;99.90;;;;;;5030925;28;20440;-74
2021/01/29 11:35:31;;;;;;;7.00;2.30;;;12.00;99.90;;;;;;5030699;28;20472;-76
2021/01/29 11:37:58;;;;;;;3.47;1.30;;;11.90;99.90;;;;;;5031030;28;20451;-75
2021/01/29 11:40:29;;;;;;;2.00;0.93;;;11.80;99.90;;;;;;5030673;28;20760;-75
2021/01/29 11:43:07;;;;;;;8.60;1.27;;;11.70;99.90;;;;;;5030541;28;20451;-75
2021/01/29 11:45:49;;;;;;;5.27;0.80;;;11.50;99.90;;;;;;5031769;28;20428;-74
2021/01/29 11:48:27;;;;;;;2.40;0.67;;;11.40;99.90;;;;;;5026132;28;20469;-75
2021/01/29 11:50:59;;;;;;;3.57;0.80;;;11.20;99.90;;;;;;5030016;28;20427;-74
2021/01/29 11:53:34;;;;;;;10.23;1.20;;;11.10;99.90;;;;;;5038938;28;20442;-75
2021/01/29 11:56:06;;;;;;;5.13;1.00;;;11.10;99.90;;;;;;5031108;28;20841;-75
2021/01/29 11:58:51;;;;;;;2.17;0.73;;;11.20;99.90;;;;;;5030524;28;20440;-74
2021/01/29 12:01:21;;;;;;;2.70;0.70;;;11.20;99.90;;;;;;5028607;28;20418;-74
2021/01/29 12:04:05;;;;;;;3.90;0.90;;;11.10;99.90;;;;;;5028525;28;20535;-76
2021/01/29 12:06:38;;;;;;;4.20;0.70;;;11.40;99.90;;;;;;5042940;28;20542;-74
2021/01/29 12:09:16;;;;;;;1.73;0.60;;;11.80;99.90;;;;;;5029952;28;20467;-75
2021/01/29 12:12:02;;;;;;;3.37;0.80;;;12.10;99.90;;;;;;5022982;28;20439;-74
2021/01/29 12:14:58;;;;;;;4.90;0.60;;;12.00;99.90;;;;;;5029825;28;20533;-74
2021/01/29 12:17:27;;;;;;;1.57;0.70;;;12.00;99.90;;;;;;5029558;28;20879;-74
2021/01/29 12:20:09;;;;;;;3.50;0.60;;;12.00;99.90;;;;;;5028399;28;20960;-74
2021/01/29 12:22:52;;;;;;;1.90;0.80;;;11.70;99.90;;;;;;5030263;28;20508;-74
2021/01/29 12:25:41;;;;;;;2.53;0.97;;;11.40;99.90;;;;;;5031440;28;20456;-74
2021/01/29 12:28:53;;;;;;;1.63;0.80;;;11.30;99.90;;;;;;5045041;28;20447;-74
2021/01/29 12:31:30;;;;;;;1.97;0.80;;;11.20;99.90;;;;;;5024345;28;20440;-76
2021/01/29 12:34:33;;;;;;;5.37;0.70;;;11.20;99.90;;;;;;5028570;28;20453;-74
2021/01/29 12:37:11;;;;;;;3.13;1.00;;;11.30;99.90;;;;;;5027779;28;20832;-73
2021/01/29 12:39:47;;;;;;;3.57;0.93;;;11.30;99.90;;;;;;5027338;28;20419;-74
2021/01/29 12:42:19;;;;;;;6.20;1.27;;;11.30;99.90;;;;;;5030218;28;20444;-74
2021/01/29 12:45:03;;;;;;;3.70;1.17;;;11.30;99.90;;;;;;5031125;28;20431;-75
2021/01/29 12:47:47;;;;;;;8.77;1.13;;;11.30;99.90;;;;;;5031525;28;20887;-74
2021/01/29 12:50:46;;;;;;;3.90;0.90;;;11.20;99.90;;;;;;5023846;28;20475;-72
2021/01/29 12:53:39;;;;;;;4.23;0.73;;;11.20;99.90;;;;;;5025340;28;20433;-76
2021/01/29 12:56:10;;;;;;;6.43;1.10;;;11.30;99.90;;;;;;4999839;28;20469;-74
2021/01/29 12:58:46;;;;;;;5.43;1.03;;;11.20;99.90;;;;;;5029860;28;20537;-74
2021/01/29 13:01:24;;;;;;;8.47;0.73;;;11.10;99.90;;;;;;5027533;28;20431;-74
2021/01/29 13:03:56;;;;;;;3.33;0.83;;;11.00;99.90;;;;;;5029663;28;20443;-74
2021/01/29 13:06:32;;;;;;;1.37;0.70;;;11.00;99.90;;;;;;5030570;28;20927;-74
2021/01/29 13:09:35;;;;;;;1.10;0.60;;;10.90;99.90;;;;;;5030363;28;20476;-74
2021/01/29 13:12:06;;;;;;;4.10;0.70;;;10.90;99.90;;;;;;5031176;28;20461;-74
2021/01/29 13:14:57;;;;;;;2.43;0.60;;;10.90;99.90;;;;;;5034998;28;20950;-73
2021/01/29 13:17:42;;;;;;;2.07;0.60;;;10.90;99.90;;;;;;5032635;28;20473;-74
2021/01/29 13:20:23;;;;;;;0.70;0.53;;;10.90;99.90;;;;;;5061991;28;20955;-74
2021/01/29 13:23:00;;;;;;;1.50;0.50;;;10.90;99.90;;;;;;5037290;28;20862;-74
2021/01/29 13:25:29;;;;;;;0.60;0.47;;;11.10;99.90;;;;;;5028159;28;20454;-72
2021/01/29 13:28:07;;;;;;;3.97;0.67;;;11.10;99.90;;;;;;5034350;28;20474;-74
2021/01/29 13:30:36;;;;;;;3.20;0.90;;;11.10;99.90;;;;;;5033249;28;20451;-75
2021/01/29 13:33:27;;;;;;;0.50;0.40;;;11.00;99.90;;;;;;5036166;28;20438;-75
2021/01/29 13:36:18;;;;;;;1.83;0.50;;;11.00;99.90;;;;;;5022845;28;20474;-76
2021/01/29 13:38:43;;;;;;;3.70;0.57;;;10.90;99.90;;;;;;5025723;28;20509;-75
2021/01/29 13:41:20;;;;;;;1.00;0.43;;;10.90;99.90;;;;;;5031353;28;20490;-74
2021/01/29 13:43:47;;;;;;;1.07;0.47;;;10.90;99.90;;;;;;5032521;28;20204;-74
2021/01/29 13:46:32;;;;;;;0.93;0.53;;;10.90;99.90;;;;;;5030147;28;20468;-74
2021/01/29 13:49:37;;;;;;;0.70;0.40;;;11.00;99.90;;;;;;5030517;28;20479;-74
2021/01/29 13:52:22;;;;;;;1.27;0.47;;;11.00;99.90;;;;;;5030140;28;20530;-75
2021/01/29 13:54:49;;;;;;;0.83;0.40;;;11.00;99.90;;;;;;5035758;28;20490;-74
2021/01/29 13:57:24;;;;;;;0.40;0.37;;;11.10;99.90;;;;;;5033862;28;20558;-74
2021/01/29 14:00:00;;;;;;;0.50;0.50;;;11.00;99.90;;;;;;5043219;28;20594;-74